createdAt,value
2022-09-29T00:01:19.206Z,11.40
2022-09-29T00:03:47.350Z,11.40
2022-09-29T00:06:18.397Z,11.43
2022-09-29T00:08:48.374Z,11.39
2022-09-29T00:11:19.807Z,11.45
2022-09-29T00:13:49.302Z,11.52
2022-09-29T00:16:17.702Z,11.56
2022-09-29T00:18:45.864Z,11.55
2022-09-29T00:21:16.510Z,11.64
2022-09-29T00:23:44.732Z,11.59
2022-09-29T00:26:17.742Z,11.67
2022-09-29T00:28:52.556Z,11.62
2022-09-29T00:31:21.731Z,11.68
2022-09-29T00:33:50.661Z,11.62
2022-09-29T00:36:21.437Z,11.61
2022-09-29T00:38:52.606Z,11.60
2022-09-29T00:41:25.655Z,11.61
2022-09-29T00:44:01.125Z,11.68
2022-09-29T00:46:45.916Z,11.72
2022-09-29T00:49:21.100Z,11.60
2022-09-29T00:51:54.087Z,11.60
2022-09-29T00:54:22.638Z,11.61
2022-09-29T00:56:52.517Z,11.70
2022-09-29T00:59:28.301Z,11.76
2022-09-29T01:01:56.658Z,11.69
2022-09-29T01:04:24.997Z,11.74
2022-09-29T01:06:56.990Z,11.70
2022-09-29T01:09:29.816Z,11.75
2022-09-29T01:12:00.222Z,11.72
2022-09-29T01:14:31.965Z,11.69
2022-09-29T01:17:00.579Z,11.69
2022-09-29T01:19:45.083Z,11.75
2022-09-29T01:22:33.612Z,11.68
2022-09-29T01:25:27.168Z,11.59
2022-09-29T01:28:31.919Z,11.64
2022-09-29T01:31:18.106Z,11.69
2022-09-29T01:33:55.821Z,11.78
2022-09-29T01:36:36.465Z,11.90
2022-09-29T01:39:18.042Z,11.83
2022-09-29T01:41:52.185Z,11.78
2022-09-29T01:44:27.188Z,11.85
2022-09-29T01:47:02.555Z,11.83
2022-09-29T01:49:35.254Z,11.84
2022-09-29T01:52:08.947Z,11.85
2022-09-29T01:54:45.052Z,11.86
2022-09-29T01:57:20.134Z,11.76
2022-09-29T01:59:56.165Z,11.78
2022-09-29T02:02:33.716Z,11.89
2022-09-29T02:05:09.223Z,11.90
2022-09-29T02:07:42.076Z,11.94
2022-09-29T02:10:18.410Z,11.91
2022-09-29T02:12:48.069Z,11.94
2022-09-29T02:15:26.690Z,11.97
2022-09-29T02:18:01.611Z,11.94
2022-09-29T02:20:30.906Z,11.96
2022-09-29T02:22:59.067Z,12.01
2022-09-29T02:25:27.424Z,11.86
2022-09-29T02:27:55.802Z,11.86
2022-09-29T02:30:23.858Z,11.91
2022-09-29T02:32:52.093Z,11.93
2022-09-29T02:35:22.102Z,11.97
2022-09-29T02:38:05.010Z,12.03
2022-09-29T02:40:48.567Z,11.97
2022-09-29T02:43:38.403Z,11.96
2022-09-29T02:46:22.268Z,11.96
2022-09-29T02:49:10.600Z,12.05
2022-09-29T02:51:43.794Z,12.03
2022-09-29T02:54:32.106Z,12.04
2022-09-29T02:57:15.007Z,12.10
2022-09-29T02:59:53.086Z,12.15
2022-09-29T03:02:26.467Z,12.10
2022-09-29T03:04:54.989Z,12.13
2022-09-29T03:07:25.647Z,12.09
2022-09-29T03:09:53.679Z,12.06
2022-09-29T03:12:21.713Z,12.10
2022-09-29T03:14:49.752Z,12.16
2022-09-29T03:17:17.803Z,12.17
2022-09-29T03:19:45.885Z,12.11
2022-09-29T03:22:14.081Z,12.06
2022-09-29T03:24:43.598Z,12.03
2022-09-29T03:27:11.866Z,12.11
2022-09-29T03:29:40.228Z,12.20
2022-09-29T03:32:08.542Z,12.18
2022-09-29T03:34:37.471Z,12.18
2022-09-29T03:37:05.748Z,12.10
2022-09-29T03:39:33.819Z,12.19
2022-09-29T03:42:03.498Z,12.19
2022-09-29T03:44:31.565Z,12.25
2022-09-29T03:47:00.717Z,12.19
2022-09-29T03:49:28.814Z,12.16
2022-09-29T03:51:56.819Z,12.16
2022-09-29T03:54:27.131Z,12.21
2022-09-29T03:56:55.297Z,12.30
2022-09-29T03:59:24.721Z,12.25
2022-09-29T04:01:52.825Z,12.24
2022-09-29T04:04:20.947Z,12.22
2022-09-29T04:06:49.066Z,12.29
2022-09-29T04:09:17.105Z,12.30
2022-09-29T04:11:45.251Z,12.34
2022-09-29T04:14:13.354Z,12.25
2022-09-29T04:16:42.882Z,12.23
2022-09-29T04:19:10.945Z,12.23
2022-09-29T04:21:38.972Z,12.16
2022-09-29T04:24:07.315Z,12.13
2022-09-29T04:26:35.370Z,12.15
2022-09-29T04:29:03.387Z,12.11
2022-09-29T04:31:31.436Z,12.10
2022-09-29T04:34:00.883Z,12.12
2022-09-29T04:36:28.921Z,12.07
2022-09-29T04:38:56.990Z,11.98
2022-09-29T04:41:33.473Z,12.06
2022-09-29T04:44:02.545Z,12.12
2022-09-29T04:46:30.839Z,12.03
2022-09-29T04:49:00.268Z,12.00
2022-09-29T04:51:28.575Z,11.95
2022-09-29T04:53:59.064Z,11.91
2022-09-29T04:56:31.328Z,11.88
2022-09-29T04:58:59.947Z,11.83
2022-09-29T05:01:29.173Z,11.78
2022-09-29T05:03:58.030Z,11.74
2022-09-29T05:06:27.599Z,11.75
2022-09-29T05:08:55.716Z,11.73
2022-09-29T05:11:23.767Z,11.68
2022-09-29T05:13:51.958Z,11.68
2022-09-29T05:16:20.131Z,11.78
2022-09-29T05:18:48.172Z,11.75
2022-09-29T05:21:27.598Z,11.64
2022-09-29T05:23:57.970Z,11.58
2022-09-29T05:26:26.147Z,11.53
2022-09-29T05:28:54.209Z,11.54
2022-09-29T05:31:22.293Z,11.53
2022-09-29T05:33:50.470Z,11.57
2022-09-29T05:36:18.493Z,11.47
2022-09-29T05:38:46.572Z,11.41
2022-09-29T05:41:22.349Z,11.44
2022-09-29T05:43:51.277Z,11.46
2022-09-29T05:46:19.458Z,11.49
2022-09-29T05:48:48.522Z,11.51
2022-09-29T05:51:22.853Z,11.57
2022-09-29T05:53:52.901Z,11.45
2022-09-29T05:56:24.481Z,11.49
2022-09-29T05:58:53.901Z,11.49
2022-09-29T06:01:25.311Z,11.57
2022-09-29T06:03:55.568Z,11.59
2022-09-29T06:06:26.676Z,11.61
2022-09-29T06:08:55.489Z,11.61
2022-09-29T06:11:28.027Z,11.60
2022-09-29T06:13:56.897Z,11.61
2022-09-29T06:16:29.538Z,11.62
2022-09-29T06:18:59.333Z,11.58
2022-09-29T06:21:29.171Z,11.56
2022-09-29T06:23:59.075Z,11.53
2022-09-29T06:26:28.971Z,11.59
2022-09-29T06:28:58.489Z,11.59
2022-09-29T06:31:28.976Z,11.61
2022-09-29T06:33:59.219Z,11.76
2022-09-29T06:36:49.707Z,11.71
2022-09-29T06:39:18.308Z,11.60
2022-09-29T06:41:53.336Z,11.64
2022-09-29T06:44:24.310Z,11.76
2022-09-29T06:46:52.426Z,11.81
2022-09-29T06:49:21.480Z,11.79
2022-09-29T06:51:49.785Z,11.83
2022-09-29T06:54:20.825Z,11.95
2022-09-29T06:56:51.557Z,11.95
2022-09-29T06:59:19.911Z,12.09
2022-09-29T07:01:50.601Z,12.10
2022-09-29T07:04:21.541Z,12.04
2022-09-29T07:06:50.549Z,11.95
2022-09-29T07:09:19.439Z,12.12
2022-09-29T07:11:52.028Z,12.19
2022-09-29T07:14:22.598Z,12.20
2022-09-29T07:16:51.369Z,12.20
2022-09-29T07:19:20.031Z,12.24
2022-09-29T07:21:48.671Z,12.24
2022-09-29T07:24:17.446Z,12.28
2022-09-29T07:26:45.657Z,12.29
2022-09-29T07:29:16.030Z,12.30
2022-09-29T07:31:51.615Z,12.37
2022-09-29T07:34:20.660Z,12.36
2022-09-29T07:36:48.689Z,12.31
2022-09-29T07:39:16.851Z,12.34
2022-09-29T07:41:44.993Z,12.37
2022-09-29T07:44:14.409Z,12.41
2022-09-29T07:46:42.453Z,12.49
2022-09-29T07:49:10.703Z,12.51
2022-09-29T07:51:38.826Z,12.48
2022-09-29T07:54:07.237Z,12.50
2022-09-29T07:56:35.694Z,12.60
2022-09-29T07:59:04.258Z,12.64
2022-09-29T08:01:34.075Z,12.64
2022-09-29T08:04:03.021Z,12.71
2022-09-29T08:06:31.591Z,12.74
2022-09-29T08:09:04.708Z,12.76
2022-09-29T08:11:35.143Z,12.79
2022-09-29T08:14:03.662Z,12.78
2022-09-29T08:16:33.398Z,12.90
2022-09-29T08:19:02.398Z,12.88
2022-09-29T08:21:31.814Z,12.84
2022-09-29T08:24:02.318Z,12.93
2022-09-29T08:26:41.630Z,13.02
2022-09-29T08:29:16.364Z,12.96
2022-09-29T08:31:47.231Z,13.04
2022-09-29T08:34:16.203Z,13.17
2022-09-29T08:36:44.541Z,13.15
2022-09-29T08:39:13.063Z,13.12
2022-09-29T08:41:58.403Z,13.28
2022-09-29T08:44:39.445Z,13.31
2022-09-29T08:47:21.713Z,13.37
2022-09-29T08:49:55.899Z,13.40
2022-09-29T08:52:31.643Z,13.50
2022-09-29T08:55:22.121Z,13.61
2022-09-29T08:57:57.995Z,13.70
2022-09-29T09:00:40.441Z,13.76
2022-09-29T09:03:25.484Z,13.86
2022-09-29T09:06:19.051Z,13.95
2022-09-29T09:09:46.488Z,14.05
2022-09-29T09:13:12.721Z,14.11
2022-09-29T09:15:55.706Z,14.20
2022-09-29T09:18:50.289Z,14.28
2022-09-29T09:21:21.966Z,14.33
2022-09-29T09:23:59.863Z,14.36
2022-09-29T09:26:40.979Z,14.39
2022-09-29T09:29:15.713Z,14.39
2022-09-29T09:31:48.622Z,14.45
2022-09-29T09:34:33.996Z,14.42
2022-09-29T09:37:14.782Z,14.45
2022-09-29T09:39:50.347Z,14.46
2022-09-29T09:42:23.331Z,14.47
2022-09-29T09:44:56.115Z,14.46
2022-09-29T09:47:27.714Z,14.49
2022-09-29T09:50:01.153Z,14.50
2022-09-29T09:52:38.178Z,14.49
2022-09-29T09:55:11.776Z,14.46
2022-09-29T09:58:29.897Z,14.55
2022-09-29T10:01:02.674Z,14.65
2022-09-29T10:03:31.649Z,14.70
2022-09-29T10:06:01.132Z,14.72
2022-09-29T10:08:33.959Z,14.77
2022-09-29T10:11:02.007Z,14.90
2022-09-29T10:13:32.232Z,14.97
2022-09-29T10:16:10.791Z,14.97
2022-09-29T10:18:42.948Z,14.96
2022-09-29T10:21:24.537Z,15.00
2022-09-29T10:23:54.582Z,15.02
2022-09-29T10:26:26.072Z,15.08
2022-09-29T10:28:58.302Z,15.15
2022-09-29T10:31:28.750Z,15.12
2022-09-29T10:33:59.926Z,15.14
2022-09-29T10:36:33.714Z,15.11
2022-09-29T10:39:03.686Z,15.13
2022-09-29T10:41:54.552Z,15.19
2022-09-29T10:44:23.162Z,15.14
2022-09-29T10:46:55.784Z,15.18
2022-09-29T10:49:28.038Z,15.19
2022-09-29T10:52:05.220Z,15.20
2022-09-29T10:54:37.638Z,15.23
2022-09-29T10:57:15.402Z,15.25
2022-09-29T10:59:52.753Z,15.29
2022-09-29T11:02:28.137Z,15.31
2022-09-29T11:05:01.037Z,15.33
2022-09-29T11:07:31.763Z,15.35
2022-09-29T11:10:00.293Z,15.44
2022-09-29T11:12:34.236Z,15.50
2022-09-29T11:15:03.000Z,15.50
2022-09-29T11:17:34.183Z,15.54
2022-09-29T11:20:06.057Z,15.50
2022-09-29T11:23:14.276Z,15.53
2022-09-29T11:25:58.366Z,15.52
2022-09-29T11:29:01.578Z,15.54
2022-09-29T11:31:46.549Z,15.52
2022-09-29T11:34:55.031Z,15.59
2022-09-29T11:37:40.672Z,15.60
2022-09-29T11:40:17.555Z,15.70
2022-09-29T11:43:05.089Z,15.68
2022-09-29T11:45:42.962Z,15.74
2022-09-29T11:48:44.747Z,15.71
2022-09-29T11:51:26.075Z,15.76
2022-09-29T11:54:34.184Z,15.78
2022-09-29T11:57:10.377Z,15.85
2022-09-29T11:59:56.653Z,15.94
2022-09-29T12:03:01.922Z,15.94
2022-09-29T12:05:44.039Z,15.91
2022-09-29T12:08:26.483Z,15.66
2022-09-29T12:11:23.764Z,15.77
2022-09-29T12:14:00.028Z,15.86
2022-09-29T12:16:33.190Z,15.92
2022-09-29T12:19:09.071Z,15.95
2022-09-29T12:21:42.843Z,15.96
2022-09-29T12:24:17.849Z,15.98
2022-09-29T12:26:50.427Z,16.01
2022-09-29T12:29:34.548Z,15.99
2022-09-29T12:32:17.124Z,15.98
2022-09-29T12:34:52.809Z,16.01
2022-09-29T12:37:28.876Z,16.01
2022-09-29T12:40:05.067Z,15.93
2022-09-29T12:43:08.216Z,15.94
2022-09-29T12:45:46.971Z,15.99
2022-09-29T12:48:30.151Z,16.05
2022-09-29T12:51:04.664Z,16.11
2022-09-29T12:53:39.482Z,16.16
2022-09-29T12:56:14.965Z,16.21
2022-09-29T12:58:48.546Z,16.24
2022-09-29T13:01:27.874Z,16.22
2022-09-29T13:04:42.035Z,16.20
2022-09-29T13:07:40.646Z,16.23
2022-09-29T13:10:34.777Z,16.03
2022-09-29T13:13:25.474Z,16.07
2022-09-29T13:16:12.211Z,16.11
2022-09-29T13:19:55.678Z,16.07
2022-09-29T13:22:46.876Z,16.09
2022-09-29T13:25:25.246Z,16.14
2022-09-29T13:27:55.734Z,16.09
2022-09-29T13:30:28.465Z,16.08
2022-09-29T13:33:10.116Z,16.06
2022-09-29T13:35:42.505Z,16.06
2022-09-29T13:38:18.370Z,16.00
2022-09-29T13:41:16.241Z,15.96
2022-09-29T13:44:20.569Z,16.00
2022-09-29T13:46:48.837Z,15.94
2022-09-29T13:49:28.181Z,16.00
2022-09-29T13:51:58.754Z,15.99
2022-09-29T13:54:40.262Z,16.01
2022-09-29T13:57:29.811Z,16.01
2022-09-29T14:00:26.518Z,15.95
2022-09-29T14:03:25.349Z,15.94
2022-09-29T14:06:36.513Z,15.99
2022-09-29T14:09:06.952Z,16.04
2022-09-29T14:11:39.002Z,16.03
2022-09-29T14:14:14.575Z,15.98
2022-09-29T14:16:55.947Z,16.06
2022-09-29T14:19:47.048Z,16.00
2022-09-29T14:23:03.652Z,16.06
2022-09-29T14:25:56.229Z,15.96
2022-09-29T14:28:36.059Z,15.97
2022-09-29T14:31:05.010Z,15.95
2022-09-29T14:33:41.629Z,15.99
2022-09-29T14:36:16.883Z,15.97
2022-09-29T14:39:14.464Z,15.99
2022-09-29T14:41:43.655Z,15.97
2022-09-29T14:44:18.106Z,15.97
2022-09-29T14:47:40.329Z,15.96
2022-09-29T14:50:57.766Z,15.91
2022-09-29T14:53:50.942Z,15.84
2022-09-29T14:56:40.986Z,15.78
2022-09-29T14:59:25.197Z,15.84
2022-09-29T15:02:24.890Z,15.86
2022-09-29T15:04:53.325Z,15.78
2022-09-29T15:07:23.891Z,15.91
2022-09-29T15:09:54.643Z,15.86
2022-09-29T15:12:27.432Z,15.79
2022-09-29T15:14:57.912Z,15.79
2022-09-29T15:17:43.347Z,15.77
2022-09-29T15:20:23.790Z,15.80
2022-09-29T15:23:28.374Z,15.73
2022-09-29T15:28:38.623Z,15.69
2022-09-29T15:31:12.116Z,15.67
2022-09-29T15:33:43.567Z,15.65
2022-09-29T15:36:21.409Z,15.77
2022-09-29T15:38:53.939Z,15.81
2022-09-29T15:41:28.965Z,15.76
2022-09-29T15:44:03.345Z,15.71
2022-09-29T15:46:41.239Z,15.67
2022-09-29T15:49:19.274Z,15.67
2022-09-29T15:51:58.497Z,15.61
2022-09-29T15:54:31.673Z,15.51
2022-09-29T15:57:17.634Z,15.52
2022-09-29T15:59:51.335Z,15.53
2022-09-29T16:02:27.453Z,15.53
2022-09-29T16:04:58.233Z,15.52
2022-09-29T16:07:29.925Z,15.45
2022-09-29T16:10:14.504Z,15.52
2022-09-29T16:12:50.431Z,15.54
2022-09-29T16:15:28.399Z,15.52
2022-09-29T16:17:57.471Z,15.55
2022-09-29T16:20:31.081Z,15.53
2022-09-29T16:23:07.892Z,15.50
2022-09-29T16:25:36.346Z,15.53
2022-09-29T16:28:07.249Z,15.46
2022-09-29T16:30:38.721Z,15.46
2022-09-29T16:33:15.803Z,15.45
2022-09-29T16:35:56.064Z,15.40
2022-09-29T16:38:34.524Z,15.39
2022-09-29T16:41:13.354Z,15.37
2022-09-29T16:43:42.875Z,15.32
2022-09-29T16:46:18.679Z,15.32
2022-09-29T16:48:49.431Z,15.29
2022-09-29T16:54:15.732Z,15.24
2022-09-29T16:56:45.363Z,15.24
2022-09-29T16:59:16.289Z,15.24
2022-09-29T17:01:47.358Z,15.23
2022-09-29T17:04:15.998Z,15.19
2022-09-29T17:06:48.967Z,15.16
2022-09-29T17:09:28.558Z,15.09
2022-09-29T17:11:57.011Z,15.01
2022-09-29T17:14:26.343Z,14.98
2022-09-29T17:16:55.775Z,14.97
2022-09-29T17:19:23.848Z,14.92
2022-09-29T17:21:54.873Z,14.86
2022-09-29T17:24:23.309Z,14.76
2022-09-29T17:27:08.949Z,14.72
2022-09-29T17:29:37.579Z,14.63
2022-09-29T17:32:15.255Z,14.63
2022-09-29T17:34:43.454Z,14.58
2022-09-29T17:37:11.787Z,14.54
2022-09-29T17:39:39.865Z,14.53
2022-09-29T17:42:08.690Z,14.49
2022-09-29T17:44:37.634Z,14.48
2022-09-29T17:47:24.212Z,14.48
2022-09-29T17:49:55.232Z,14.41
2022-09-29T17:52:23.441Z,14.41
2022-09-29T17:54:51.690Z,14.38
2022-09-29T17:57:28.882Z,14.36
2022-09-29T17:59:58.252Z,14.36
2022-09-29T18:02:26.566Z,14.33
2022-09-29T18:04:56.523Z,14.31
2022-09-29T18:07:25.449Z,14.33
2022-09-29T18:09:53.552Z,14.34
2022-09-29T18:12:21.581Z,14.31
2022-09-29T18:14:49.614Z,14.31
2022-09-29T18:17:17.659Z,14.27
2022-09-29T18:19:46.292Z,14.31
2022-09-29T18:22:15.791Z,14.30
2022-09-29T18:24:44.458Z,14.30
2022-09-29T18:27:14.731Z,14.29
2022-09-29T18:29:42.996Z,14.27
2022-09-29T18:32:16.551Z,14.24
2022-09-29T18:34:44.590Z,14.30
2022-09-29T18:37:12.610Z,14.27
2022-09-29T18:39:41.937Z,14.27
2022-09-29T18:42:11.074Z,14.28
2022-09-29T18:44:39.423Z,14.31
2022-09-29T18:47:07.477Z,14.27
2022-09-29T18:49:35.735Z,14.27
2022-09-29T18:52:03.789Z,14.31
2022-09-29T18:54:33.326Z,14.27
2022-09-29T18:57:02.788Z,14.26
2022-09-29T18:59:32.514Z,14.26
2022-09-29T19:02:01.635Z,14.22
2022-09-29T19:04:30.181Z,14.14
2022-09-29T19:06:58.306Z,14.08
2022-09-29T19:09:26.379Z,14.06
2022-09-29T19:11:55.343Z,14.01
2022-09-29T19:14:24.708Z,13.97
2022-09-29T19:16:55.027Z,13.92
2022-09-29T19:19:25.571Z,13.95
2022-09-29T19:21:53.570Z,13.92
2022-09-29T19:24:24.089Z,13.76
2022-09-29T19:26:52.307Z,13.78
2022-09-29T19:29:20.531Z,13.75
2022-09-29T19:31:50.052Z,13.74
2022-09-29T19:34:18.119Z,13.70
2022-09-29T19:36:46.184Z,13.75
2022-09-29T19:39:14.658Z,13.72
2022-09-29T19:41:43.284Z,13.74
2022-09-29T19:44:11.397Z,13.72
2022-09-29T19:46:39.465Z,13.69
2022-09-29T19:49:08.863Z,13.73
2022-09-29T19:51:52.791Z,13.69
2022-09-29T19:54:24.797Z,13.68
2022-09-29T19:56:57.646Z,13.79
2022-09-29T19:59:28.945Z,13.80
2022-09-29T20:01:58.044Z,13.74
2022-09-29T20:04:32.270Z,13.76
2022-09-29T20:07:01.844Z,13.66
2022-09-29T20:09:31.183Z,13.74
2022-09-29T20:11:59.986Z,13.72
2022-09-29T20:14:32.986Z,13.75
2022-09-29T20:17:01.230Z,13.66
2022-09-29T20:19:31.735Z,13.65
2022-09-29T20:21:59.750Z,13.60
2022-09-29T20:24:27.794Z,13.55
2022-09-29T20:26:57.460Z,13.52
2022-09-29T20:29:27.040Z,13.51
2022-09-29T20:31:55.127Z,13.46
2022-09-29T20:34:23.449Z,13.41
2022-09-29T20:36:55.104Z,13.42
2022-09-29T20:39:25.113Z,13.39
2022-09-29T20:41:54.243Z,13.42
2022-09-29T20:44:25.271Z,13.44
2022-09-29T20:46:53.630Z,13.43
2022-09-29T20:49:21.707Z,13.42
2022-09-29T20:51:51.559Z,13.40
2022-09-29T20:54:21.945Z,13.39
2022-09-29T20:56:50.950Z,13.43
2022-09-29T20:59:22.106Z,13.46
2022-09-29T21:01:51.076Z,13.44
2022-09-29T21:04:21.934Z,13.39
2022-09-29T21:06:52.101Z,13.44
2022-09-29T21:09:24.412Z,13.46
2022-09-29T21:11:55.031Z,13.43
2022-09-29T21:14:26.766Z,13.35
2022-09-29T21:16:55.709Z,13.30
2022-09-29T21:19:26.551Z,13.30
2022-09-29T21:21:55.119Z,13.21
2022-09-29T21:24:24.871Z,13.16
2022-09-29T21:26:53.218Z,13.09
2022-09-29T21:29:21.275Z,13.10
2022-09-29T21:31:50.537Z,13.15
2022-09-29T21:34:18.560Z,13.12
2022-09-29T21:36:46.641Z,13.13
2022-09-29T21:39:15.277Z,13.08
2022-09-29T21:41:46.594Z,13.06
2022-09-29T21:44:17.825Z,13.03
2022-09-29T21:46:46.146Z,12.93
2022-09-29T21:49:16.608Z,12.95
2022-09-29T21:51:47.650Z,12.96
2022-09-29T21:54:18.834Z,12.92
2022-09-29T21:56:48.834Z,12.92
2022-09-29T21:59:20.065Z,12.81
2022-09-29T22:01:49.032Z,12.80
2022-09-29T22:04:18.240Z,12.85
2022-09-29T22:06:46.758Z,12.84
2022-09-29T22:09:19.032Z,12.88
2022-09-29T22:11:49.916Z,12.95
2022-09-29T22:14:19.289Z,12.91
2022-09-29T22:16:47.515Z,12.87
2022-09-29T22:19:23.411Z,12.93
2022-09-29T22:21:52.851Z,12.90
2022-09-29T22:24:20.922Z,12.87
2022-09-29T22:26:50.319Z,12.85
2022-09-29T22:29:18.531Z,12.89
2022-09-29T22:31:47.155Z,12.88
2022-09-29T22:34:15.242Z,12.98
2022-09-29T22:36:43.366Z,12.94
2022-09-29T22:39:11.583Z,12.93
2022-09-29T22:41:40.951Z,12.90
2022-09-29T22:44:10.805Z,12.84
2022-09-29T22:46:39.021Z,12.77
2022-09-29T22:49:07.123Z,12.75
2022-09-29T22:51:35.428Z,12.81
2022-09-29T22:54:03.516Z,12.89
2022-09-29T22:56:31.574Z,12.88
2022-09-29T22:59:02.416Z,12.89
2022-09-29T23:01:33.336Z,12.86
2022-09-29T23:04:03.754Z,12.82
2022-09-29T23:06:32.093Z,12.80
2022-09-29T23:09:00.262Z,12.82
2022-09-29T23:11:28.610Z,12.79
2022-09-29T23:13:57.252Z,12.81
2022-09-29T23:16:25.304Z,12.84
2022-09-29T23:18:58.388Z,12.85
2022-09-29T23:21:27.108Z,12.84
2022-09-29T23:23:57.721Z,12.84
2022-09-29T23:26:26.552Z,12.85
2022-09-29T23:28:55.623Z,12.79
2022-09-29T23:31:24.051Z,12.77
2022-09-29T23:33:55.692Z,12.76
2022-09-29T23:36:25.761Z,12.73
2022-09-29T23:39:13.450Z,12.78
2022-09-29T23:41:43.428Z,12.83
2022-09-29T23:44:13.958Z,12.80
2022-09-29T23:46:43.032Z,12.83
2022-09-29T23:49:15.570Z,12.80
2022-09-29T23:51:46.824Z,12.79
2022-09-29T23:54:18.107Z,12.77
2022-09-29T23:56:46.837Z,12.80
2022-09-29T23:59:15.625Z,12.80
